createdAt,value
2024-04-08T13:55:07.867Z,19.33
2024-04-08T13:56:10.229Z,19.55
2024-04-08T13:57:12.704Z,18.52
2024-04-08T13:58:14.985Z,18.08
2024-04-08T13:59:17.542Z,18.75
2024-04-08T14:00:19.761Z,18.27
2024-04-08T14:01:22.233Z,18.92
2024-04-08T14:02:24.468Z,18.55
2024-04-08T14:03:28.879Z,18.08
2024-04-08T14:04:32.339Z,16.70
2024-04-08T14:05:34.848Z,17.15
2024-04-08T14:06:37.348Z,16.70
2024-04-08T14:07:39.639Z,16.98
2024-04-08T14:08:41.819Z,16.40
2024-04-08T14:09:44.007Z,15.77
2024-04-08T14:10:46.433Z,16.67
2024-04-08T14:11:48.810Z,16.67
2024-04-08T14:12:50.970Z,15.77
2024-04-08T14:13:53.294Z,16.13
2024-04-08T14:14:55.467Z,16.92
2024-04-08T14:15:57.803Z,16.73
2024-04-08T14:17:00.575Z,17.30
2024-04-08T14:18:03.937Z,16.15
2024-04-08T14:19:06.107Z,16.15
2024-04-08T14:20:08.494Z,16.63
2024-04-08T14:21:11.099Z,16.52
2024-04-08T14:22:13.322Z,15.73
2024-04-08T14:23:15.946Z,17.05
2024-04-08T14:24:18.694Z,16.48
2024-04-08T14:25:20.979Z,16.88
2024-04-08T14:26:24.028Z,13.77
2024-04-08T14:27:26.401Z,16.52
2024-04-08T14:28:28.704Z,17.05
2024-04-08T14:29:33.908Z,15.93
2024-04-08T14:30:38.325Z,16.42
2024-04-08T14:31:40.585Z,15.85
2024-04-08T14:32:42.842Z,14.95
2024-04-08T14:33:45.394Z,15.25
2024-04-08T14:34:47.841Z,14.90
2024-04-08T14:35:50.667Z,15.57
2024-04-08T14:36:53.023Z,15.68
2024-04-08T14:38:20.073Z,15.25
2024-04-08T14:39:28.835Z,16.80
2024-04-08T14:40:39.068Z,14.70
2024-04-08T14:41:44.023Z,13.80
2024-04-08T14:42:46.699Z,14.70
2024-04-08T14:43:59.754Z,14.85
2024-04-08T14:45:07.006Z,14.73
2024-04-08T14:46:09.464Z,14.32
2024-04-08T14:47:11.708Z,14.20
2024-04-08T14:48:14.222Z,14.57
2024-04-08T14:49:16.828Z,15.23
2024-04-08T14:50:19.424Z,14.52
2024-04-08T14:51:27.552Z,14.85
2024-04-08T14:52:40.117Z,12.93
2024-04-08T14:53:46.214Z,14.57
2024-04-08T14:54:49.079Z,14.65
2024-04-08T14:55:51.707Z,14.73
2024-04-08T14:56:54.272Z,15.23
2024-04-08T14:57:56.502Z,15.90
2024-04-08T14:59:00.009Z,15.38
2024-04-08T15:00:02.387Z,14.70
2024-04-08T15:01:07.101Z,13.85
2024-04-08T15:02:09.317Z,14.20
2024-04-08T15:03:12.974Z,13.40
2024-04-08T15:04:16.051Z,13.38
2024-04-08T15:05:18.299Z,13.75
2024-04-08T15:06:21.124Z,13.82
2024-04-08T15:07:28.170Z,13.25
2024-04-08T15:08:31.082Z,14.63
2024-04-08T15:09:40.919Z,13.68
2024-04-08T15:10:43.144Z,12.10
2024-04-08T15:11:45.420Z,12.50
2024-04-08T15:12:49.812Z,12.27
2024-04-08T15:13:52.331Z,12.02
2024-04-08T15:14:54.509Z,11.85
2024-04-08T15:15:56.813Z,11.35
2024-04-08T15:16:59.146Z,12.05
2024-04-08T15:18:01.475Z,10.90
2024-04-08T15:19:04.890Z,11.05
2024-04-08T15:20:08.243Z,11.55
2024-04-08T15:21:10.713Z,11.20
2024-04-08T15:22:15.852Z,11.15
2024-04-08T15:23:18.020Z,10.70
2024-04-08T15:24:20.540Z,10.00
2024-04-08T15:25:22.758Z,11.02
2024-04-08T15:26:25.303Z,11.07
2024-04-08T15:27:27.615Z,10.48
2024-04-08T15:28:30.052Z,10.90
2024-04-08T15:29:32.256Z,11.45
2024-04-08T15:30:34.531Z,9.38
2024-04-08T15:31:36.725Z,9.02
2024-04-08T15:32:41.199Z,9.45
2024-04-08T15:33:43.617Z,8.52
2024-04-08T15:34:49.396Z,7.80
2024-04-08T15:36:01.886Z,9.57
2024-04-08T15:37:05.246Z,10.05
2024-04-08T15:38:07.404Z,10.05
2024-04-08T15:39:09.650Z,9.88
2024-04-08T15:40:12.083Z,9.93
2024-04-08T15:41:14.276Z,9.60
2024-04-08T15:42:16.469Z,8.90
2024-04-08T15:43:18.681Z,9.77
2024-04-08T15:44:22.518Z,9.30
2024-04-08T15:45:24.931Z,9.70
2024-04-08T15:46:31.926Z,10.02
2024-04-08T15:47:34.366Z,9.55
2024-04-08T15:48:36.787Z,10.57
2024-04-08T15:49:39.117Z,10.32
2024-04-08T15:50:41.364Z,10.18
2024-04-08T15:51:43.533Z,10.75
2024-04-08T15:52:45.733Z,10.68
2024-04-08T15:53:47.913Z,10.30
2024-04-08T15:54:50.121Z,10.38
2024-04-08T15:55:52.339Z,10.55
2024-04-08T15:56:54.582Z,9.95
2024-04-08T15:57:57.468Z,10.32
2024-04-08T15:58:59.667Z,9.85
2024-04-08T16:00:01.858Z,11.23
2024-04-08T16:01:05.121Z,9.65
2024-04-08T16:02:08.010Z,10.35
2024-04-08T16:03:11.112Z,10.75
2024-04-08T16:04:13.720Z,9.90
2024-04-08T16:05:16.414Z,10.20
2024-04-08T16:06:18.923Z,10.20
2024-04-08T16:07:21.197Z,10.93
2024-04-08T16:08:23.924Z,10.95
2024-04-08T16:09:26.890Z,11.55
2024-04-08T16:10:29.376Z,11.07
2024-04-08T16:11:32.343Z,10.45
2024-04-08T16:12:35.252Z,10.65
2024-04-08T16:13:37.420Z,11.07
2024-04-08T16:14:39.682Z,10.43
2024-04-08T16:15:49.194Z,10.75
2024-04-08T16:16:54.075Z,10.10
2024-04-08T16:17:56.356Z,11.02
2024-04-08T16:18:59.477Z,10.75
2024-04-08T16:20:01.703Z,11.10
2024-04-08T16:21:04.869Z,11.07
2024-04-08T16:22:07.417Z,10.05
2024-04-08T16:23:21.780Z,9.63
2024-04-08T16:24:31.812Z,10.05
2024-04-08T16:25:34.087Z,9.50
2024-04-08T16:26:36.914Z,9.32
2024-04-08T16:27:39.961Z,9.90
2024-04-08T16:28:42.147Z,9.93
2024-04-08T16:29:44.316Z,9.90
2024-04-08T16:31:01.451Z,9.23
2024-04-08T16:32:04.291Z,9.15
2024-04-08T16:33:06.748Z,8.98
2024-04-08T16:34:09.232Z,8.63
2024-04-08T16:35:11.526Z,8.27
2024-04-08T16:36:13.891Z,8.27
2024-04-08T16:37:16.026Z,8.82
2024-04-08T16:38:19.186Z,8.38
2024-04-08T16:39:22.169Z,8.75
2024-04-08T16:40:25.029Z,8.65
2024-04-08T16:41:27.358Z,8.73
2024-04-08T16:42:29.701Z,7.78
2024-04-08T16:43:31.915Z,7.45
2024-04-08T16:44:34.236Z,7.97
2024-04-08T16:45:36.567Z,7.53
2024-04-08T16:46:38.857Z,7.70
2024-04-08T16:47:41.136Z,8.02
2024-04-08T16:48:43.499Z,6.85
2024-04-08T16:49:45.737Z,6.97
2024-04-08T16:50:47.990Z,7.60
2024-04-08T16:51:53.591Z,7.55
2024-04-08T16:52:55.749Z,7.85
2024-04-08T16:53:57.991Z,7.03
2024-04-08T16:55:00.242Z,6.78
2024-04-08T16:56:04.360Z,6.53
2024-04-08T16:57:06.601Z,6.85
2024-04-08T16:58:08.913Z,6.93
2024-04-08T16:59:11.476Z,7.45
2024-04-08T17:00:14.023Z,6.82
2024-04-08T17:01:16.265Z,6.93
2024-04-08T17:02:18.949Z,6.72
2024-04-08T17:03:22.663Z,7.20
2024-04-08T17:04:25.119Z,6.88
2024-04-08T17:05:27.384Z,6.93
2024-04-08T17:06:52.340Z,7.15
2024-04-08T17:07:54.842Z,7.03
2024-04-08T17:08:57.000Z,7.57
2024-04-08T17:09:59.670Z,7.43
2024-04-08T17:11:02.906Z,7.05
2024-04-08T17:12:05.652Z,7.20
2024-04-08T17:13:09.605Z,7.20
2024-04-08T17:14:11.785Z,6.95
2024-04-08T17:15:14.173Z,6.55
2024-04-08T17:16:16.357Z,7.00
2024-04-08T17:17:18.558Z,6.72
2024-04-08T17:18:20.910Z,7.07
2024-04-08T17:19:23.476Z,6.70
2024-04-08T17:20:25.734Z,7.13
2024-04-08T17:21:27.959Z,6.78
2024-04-08T17:22:30.271Z,6.22
2024-04-08T17:23:32.618Z,7.07
2024-04-08T17:24:34.950Z,7.00
2024-04-08T17:25:37.225Z,6.75
2024-04-08T17:26:39.381Z,6.65
2024-04-08T17:27:41.526Z,6.97
2024-04-08T17:28:43.863Z,6.90
2024-04-08T17:29:46.260Z,6.45
2024-04-08T17:30:55.185Z,6.97
2024-04-08T17:31:57.318Z,7.38
2024-04-08T17:32:59.623Z,7.18
2024-04-08T17:34:02.046Z,6.93
2024-04-08T17:35:05.564Z,6.97
2024-04-08T17:36:08.490Z,7.38
2024-04-08T17:37:10.708Z,6.72
2024-04-08T17:38:12.906Z,7.25
2024-04-08T17:39:18.207Z,7.25
2024-04-08T17:40:21.751Z,7.47
2024-04-08T17:41:25.918Z,7.30
2024-04-08T17:42:32.546Z,6.97
2024-04-08T17:43:43.565Z,7.03
2024-04-08T17:44:46.851Z,5.97
2024-04-08T17:45:49.076Z,6.88
2024-04-08T17:46:51.349Z,6.90
2024-04-08T17:47:53.868Z,6.93
2024-04-08T17:48:56.249Z,6.80
2024-04-08T17:49:58.629Z,6.85
2024-04-08T17:51:03.603Z,7.18
2024-04-08T17:52:06.371Z,6.28
2024-04-08T17:53:08.509Z,6.47
2024-04-08T17:54:10.800Z,6.60
2024-04-08T17:55:13.044Z,6.65
2024-04-08T17:56:17.334Z,6.60
2024-04-08T17:57:19.664Z,6.85
2024-04-08T17:58:21.852Z,6.82
2024-04-08T17:59:24.228Z,6.78
2024-04-08T18:00:26.513Z,7.53
2024-04-08T18:01:28.855Z,6.95
2024-04-08T18:02:31.335Z,7.03
2024-04-08T18:03:33.680Z,7.40
2024-04-08T18:04:36.049Z,7.43
2024-04-08T18:05:39.187Z,7.10
2024-04-08T18:06:41.439Z,7.03
2024-04-08T18:07:44.305Z,7.10
2024-04-08T18:08:54.232Z,7.00
2024-04-08T18:09:56.544Z,7.78
2024-04-08T18:11:02.613Z,6.85
2024-04-08T18:12:05.203Z,7.88
2024-04-08T18:13:07.569Z,7.38
2024-04-08T18:14:09.729Z,7.28
2024-04-08T18:15:11.962Z,7.90
2024-04-08T18:16:19.658Z,7.78
2024-04-08T18:17:22.408Z,7.80
2024-04-08T18:18:25.595Z,8.15
2024-04-08T18:19:27.961Z,7.85
2024-04-08T18:20:30.207Z,7.85
2024-04-08T18:21:37.037Z,7.90
2024-04-08T18:22:39.215Z,8.65
2024-04-08T18:23:41.675Z,8.77
2024-04-08T18:24:43.913Z,9.15
2024-04-08T18:25:55.979Z,9.00
2024-04-08T18:26:58.257Z,9.57
2024-04-08T18:28:00.501Z,8.70
2024-04-08T18:29:02.664Z,9.60
2024-04-08T18:30:07.086Z,8.70
2024-04-08T18:31:10.930Z,9.68
2024-04-08T18:32:14.826Z,10.05
2024-04-08T18:33:17.257Z,10.73
2024-04-08T18:34:19.697Z,10.43
2024-04-08T18:35:21.959Z,10.02
2024-04-08T18:36:24.406Z,10.63
2024-04-08T18:37:26.789Z,11.20
2024-04-08T18:38:33.576Z,10.38
2024-04-08T18:39:35.803Z,10.98
2024-04-08T18:40:38.044Z,10.13
2024-04-08T18:41:40.226Z,11.15
2024-04-08T18:42:42.586Z,10.35
2024-04-08T18:43:45.229Z,11.18
2024-04-08T18:44:51.073Z,10.82
2024-04-08T18:45:53.488Z,10.95
2024-04-08T18:46:55.651Z,10.98
2024-04-08T18:47:57.884Z,11.52
2024-04-08T18:49:00.316Z,11.30
2024-04-08T18:50:03.111Z,11.80
2024-04-08T18:51:06.180Z,11.55
2024-04-08T18:52:09.538Z,11.52
2024-04-08T18:53:11.866Z,12.80
2024-04-08T18:54:14.091Z,12.05
2024-04-08T18:55:16.303Z,12.18
2024-04-08T18:56:18.485Z,11.98
2024-04-08T18:57:20.697Z,12.55
2024-04-08T18:58:22.888Z,11.70
2024-04-08T18:59:25.206Z,12.45
2024-04-08T19:00:27.369Z,12.00
2024-04-08T19:01:29.638Z,11.30
2024-04-08T19:02:32.131Z,12.13
2024-04-08T19:03:34.389Z,11.90
2024-04-08T19:04:36.658Z,11.80
2024-04-08T19:05:44.742Z,11.63
2024-04-08T19:06:48.146Z,11.52
2024-04-08T19:07:50.791Z,11.48
2024-04-08T19:08:53.440Z,12.07
2024-04-08T19:09:56.609Z,12.02
2024-04-08T19:11:00.467Z,12.40
2024-04-08T19:12:02.751Z,11.90
2024-04-08T19:13:05.985Z,11.95
2024-04-08T19:14:08.292Z,12.25
2024-04-08T19:15:10.922Z,11.95
2024-04-08T19:16:13.349Z,11.77
2024-04-08T19:17:15.537Z,11.88
2024-04-08T19:18:17.803Z,11.75
2024-04-08T19:19:25.656Z,12.27
2024-04-08T19:20:28.894Z,11.82
2024-04-08T19:21:31.332Z,11.90
2024-04-08T19:22:33.778Z,11.98
2024-04-08T19:23:37.497Z,11.40
2024-04-08T19:24:43.845Z,11.98
2024-04-08T19:25:58.515Z,12.05
2024-04-08T19:27:00.963Z,11.63
2024-04-08T19:28:03.477Z,11.80
2024-04-08T19:29:05.796Z,11.40
2024-04-08T19:30:08.838Z,11.68
2024-04-08T19:31:11.255Z,11.30
2024-04-08T19:32:13.680Z,11.43
2024-04-08T19:33:16.055Z,11.15
2024-04-08T19:34:18.457Z,11.80
2024-04-08T19:35:20.836Z,11.73
2024-04-08T19:36:23.575Z,12.02
2024-04-08T19:37:25.783Z,10.82
2024-04-08T19:38:29.001Z,11.77
2024-04-08T19:39:32.343Z,11.85
2024-04-08T19:40:35.317Z,11.70
2024-04-08T19:41:37.732Z,12.38
2024-04-08T19:42:40.029Z,10.95
2024-04-08T19:43:42.239Z,11.35
2024-04-08T19:44:44.431Z,12.35
2024-04-08T19:45:55.489Z,11.65
2024-04-08T19:47:04.994Z,12.52
2024-04-08T19:48:07.883Z,11.88
2024-04-08T19:49:10.509Z,12.57
2024-04-08T19:50:13.152Z,13.00
2024-04-08T19:51:20.842Z,12.90
2024-04-08T19:52:26.494Z,12.70
2024-04-08T19:53:28.762Z,12.68
2024-04-08T19:54:31.978Z,12.43
2024-04-08T19:55:34.401Z,13.18
2024-04-08T19:56:37.069Z,12.80
2024-04-08T19:57:39.538Z,12.45
2024-04-08T19:58:42.728Z,12.90
2024-04-08T19:59:44.859Z,13.60
2024-04-08T20:00:47.185Z,12.80
2024-04-08T20:01:49.374Z,13.25
2024-04-08T20:02:51.680Z,13.35
2024-04-08T20:03:55.960Z,13.45
2024-04-08T20:04:58.290Z,12.88
2024-04-08T20:06:00.715Z,13.30
2024-04-08T20:07:02.909Z,13.48
2024-04-08T20:08:05.581Z,13.63
2024-04-08T20:09:07.879Z,14.10
2024-04-08T20:10:10.110Z,13.57
2024-04-08T20:11:12.458Z,13.25
2024-04-08T20:12:14.824Z,13.68
2024-04-08T20:13:17.073Z,13.73
2024-04-08T20:14:19.252Z,12.90
2024-04-08T20:15:21.504Z,13.20
2024-04-08T20:16:24.453Z,13.38
2024-04-08T20:17:30.151Z,13.20
2024-04-08T20:18:32.725Z,13.57
2024-04-08T20:19:34.939Z,12.77
2024-04-08T20:20:37.891Z,13.63
2024-04-08T20:21:41.312Z,14.32
2024-04-08T20:22:43.596Z,13.65
2024-04-08T20:23:45.864Z,13.20
2024-04-08T20:24:54.041Z,13.27
2024-04-08T20:25:56.198Z,14.73
2024-04-08T20:26:58.875Z,13.85
2024-04-08T20:28:01.140Z,13.48
2024-04-08T20:29:03.405Z,13.70
2024-04-08T20:30:06.051Z,15.50
2024-04-08T20:31:08.569Z,14.82
2024-04-08T20:32:10.842Z,14.50
2024-04-08T20:33:13.196Z,14.55
2024-04-08T20:34:15.682Z,14.82
2024-04-08T20:35:17.915Z,14.80
2024-04-08T20:36:20.099Z,14.75
2024-04-08T20:37:22.408Z,14.02
2024-04-08T20:38:24.771Z,14.18
2024-04-08T20:39:27.093Z,14.48
2024-04-08T20:40:29.311Z,14.73
2024-04-08T20:41:31.503Z,14.32
2024-04-08T20:42:33.921Z,15.02
2024-04-08T20:43:37.680Z,15.18
2024-04-08T20:44:39.852Z,14.60
2024-04-08T20:45:42.694Z,14.63
2024-04-08T20:46:44.967Z,13.98
2024-04-08T20:47:47.288Z,14.63
2024-04-08T20:48:49.634Z,14.73
2024-04-08T20:49:52.550Z,14.15
2024-04-08T20:50:59.351Z,14.95
2024-04-08T20:52:02.737Z,14.77
2024-04-08T20:53:05.517Z,15.18
2024-04-08T20:54:07.673Z,15.57
2024-04-08T20:55:09.853Z,15.38
2024-04-08T20:56:12.151Z,14.73
2024-04-08T20:57:14.504Z,15.90
2024-04-08T20:58:16.712Z,14.98
2024-04-08T20:59:19.470Z,14.20
2024-04-08T21:00:22.184Z,14.88
2024-04-08T21:01:24.334Z,14.70
2024-04-08T21:02:27.259Z,15.43
2024-04-08T21:03:29.563Z,15.25
2024-04-08T21:04:31.948Z,15.27
2024-04-08T21:05:34.628Z,14.95
2024-04-08T21:06:36.903Z,14.55
2024-04-08T21:07:39.724Z,15.15
2024-04-08T21:08:42.426Z,14.82
2024-04-08T21:09:44.712Z,14.95
2024-04-08T21:10:46.924Z,14.13
2024-04-08T21:11:50.032Z,14.75
2024-04-08T21:12:52.262Z,14.93
2024-04-08T21:13:54.394Z,14.95
2024-04-08T21:14:56.582Z,14.25
2024-04-08T21:16:00.637Z,14.93
2024-04-08T21:17:02.856Z,14.52
2024-04-08T21:18:05.452Z,15.23
2024-04-08T21:19:07.916Z,14.70
2024-04-08T21:20:10.541Z,15.32
2024-04-08T21:21:13.364Z,14.50
2024-04-08T21:22:15.775Z,14.80
2024-04-08T21:23:18.025Z,14.75
2024-04-08T21:24:20.302Z,14.95
2024-04-08T21:25:22.481Z,14.88
2024-04-08T21:26:24.704Z,14.88
2024-04-08T21:27:27.040Z,15.13
2024-04-08T21:28:29.246Z,15.00
2024-04-08T21:29:31.675Z,14.93
2024-04-08T21:30:34.017Z,14.23
2024-04-08T21:31:36.343Z,16.15
2024-04-08T21:32:38.620Z,15.40
2024-04-08T21:33:42.303Z,16.25
2024-04-08T21:34:45.695Z,15.45
2024-04-08T21:35:58.025Z,15.63
2024-04-08T21:37:00.393Z,16.20
2024-04-08T21:38:02.582Z,16.27
2024-04-08T21:39:04.878Z,15.00
2024-04-08T21:40:07.449Z,16.33
2024-04-08T21:41:11.202Z,16.13
2024-04-08T21:42:13.467Z,15.32
2024-04-08T21:43:15.629Z,14.98
2024-04-08T21:44:17.793Z,15.15
2024-04-08T21:45:20.100Z,15.82
2024-04-08T21:46:22.434Z,16.10
2024-04-08T21:47:25.664Z,15.77
2024-04-08T21:48:28.394Z,16.50
2024-04-08T21:49:30.814Z,15.32
2024-04-08T21:50:35.783Z,16.65
2024-04-08T21:51:38.232Z,15.57
2024-04-08T21:52:40.578Z,15.35
2024-04-08T21:53:42.770Z,14.98
2024-04-08T21:54:44.966Z,15.70
2024-04-08T21:56:04.017Z,16.17
2024-04-08T21:57:06.533Z,16.02
2024-04-08T21:58:08.888Z,16.48
2024-04-08T21:59:11.087Z,15.63
2024-04-08T22:00:15.004Z,15.55
2024-04-08T22:01:18.307Z,15.55
2024-04-08T22:02:20.794Z,15.57
2024-04-08T22:03:27.180Z,16.02
2024-04-08T22:04:29.613Z,16.35
2024-04-08T22:05:31.916Z,16.10
2024-04-08T22:06:34.344Z,16.45
2024-04-08T22:07:36.508Z,16.48
2024-04-08T22:08:41.627Z,16.25
2024-04-08T22:09:43.947Z,15.82
2024-04-08T22:10:46.527Z,15.90
2024-04-08T22:11:48.849Z,16.13
2024-04-08T22:12:51.028Z,15.95
2024-04-08T22:13:53.229Z,15.90
2024-04-08T22:14:55.423Z,15.80
2024-04-08T22:15:58.201Z,16.33
2024-04-08T22:17:00.403Z,17.23
2024-04-08T22:18:03.053Z,15.70
2024-04-08T22:19:05.383Z,16.60
2024-04-08T22:20:09.693Z,15.88
2024-04-08T22:21:12.048Z,16.30
2024-04-08T22:22:14.257Z,16.05
2024-04-08T22:23:16.470Z,16.05
2024-04-08T22:24:18.669Z,16.08
2024-04-08T22:25:20.990Z,16.77
2024-04-08T22:26:23.158Z,16.88
2024-04-08T22:27:25.469Z,17.08
2024-04-08T22:28:27.678Z,16.63
2024-04-08T22:29:30.581Z,16.27
2024-04-08T22:30:33.176Z,16.40
2024-04-08T22:31:35.466Z,17.02
2024-04-08T22:32:37.723Z,16.15
2024-04-08T22:33:40.171Z,16.92
2024-04-08T22:34:42.628Z,16.67
2024-04-08T22:35:45.698Z,16.52
2024-04-08T22:36:47.888Z,17.23
2024-04-08T22:37:50.949Z,16.70
2024-04-08T22:38:53.218Z,16.02
2024-04-08T22:39:55.464Z,16.08
2024-04-08T22:41:07.864Z,16.20
2024-04-08T22:42:17.684Z,16.02
2024-04-08T22:43:19.963Z,16.30
2024-04-08T22:44:24.072Z,15.93
2024-04-08T22:45:26.498Z,15.10
2024-04-08T22:46:28.919Z,16.27
2024-04-08T22:47:31.849Z,15.52
2024-04-08T22:48:34.679Z,16.60
2024-04-08T22:49:36.954Z,15.23
2024-04-08T22:50:39.286Z,15.15
2024-04-08T22:51:42.765Z,15.27
2024-04-08T22:52:45.514Z,14.90
2024-04-08T22:53:47.672Z,14.90
2024-04-08T22:54:52.025Z,15.07
2024-04-08T22:55:54.231Z,14.75
2024-04-08T22:56:56.495Z,13.65
2024-04-08T22:57:59.608Z,13.20
2024-04-08T22:59:01.893Z,13.70
2024-04-08T23:00:05.364Z,12.98
2024-04-08T23:01:07.911Z,13.43
2024-04-08T23:02:10.665Z,13.23
2024-04-08T23:03:13.210Z,14.00
2024-04-08T23:04:15.887Z,14.13
2024-04-08T23:05:18.343Z,13.75
2024-04-08T23:06:20.888Z,14.23
2024-04-08T23:07:23.119Z,14.38
2024-04-08T23:08:25.978Z,15.52
2024-04-08T23:09:28.223Z,14.98
2024-04-08T23:10:30.404Z,16.45
2024-04-08T23:11:32.697Z,15.20
2024-04-08T23:12:35.564Z,14.65
2024-04-08T23:13:37.841Z,12.77
2024-04-08T23:14:40.044Z,13.20
2024-04-08T23:15:42.491Z,12.27
2024-04-08T23:16:44.745Z,12.52
2024-04-08T23:17:47.084Z,11.75
2024-04-08T23:18:49.501Z,12.40
2024-04-08T23:19:51.783Z,11.05
2024-04-08T23:20:54.043Z,11.70
2024-04-08T23:21:56.227Z,11.63
2024-04-08T23:22:58.349Z,10.25
2024-04-08T23:24:00.659Z,10.15
2024-04-08T23:25:02.908Z,10.20
2024-04-08T23:26:05.995Z,10.30
2024-04-08T23:27:08.397Z,9.25
2024-04-08T23:28:10.592Z,9.32
2024-04-08T23:29:12.703Z,9.50
2024-04-08T23:30:15.034Z,10.27
2024-04-08T23:31:17.272Z,9.52
2024-04-08T23:32:19.521Z,9.18
2024-04-08T23:33:21.911Z,10.02
2024-04-08T23:34:24.388Z,9.90
2024-04-08T23:35:26.631Z,10.02
2024-04-08T23:36:28.973Z,9.98
2024-04-08T23:37:31.244Z,10.15
2024-04-08T23:38:33.466Z,10.15
2024-04-08T23:39:36.196Z,10.35
2024-04-08T23:40:39.703Z,10.73
2024-04-08T23:41:41.962Z,10.18
2024-04-08T23:42:44.330Z,10.55
2024-04-08T23:43:50.196Z,10.05
2024-04-08T23:44:52.507Z,10.10
2024-04-08T23:46:00.288Z,10.68
2024-04-08T23:47:02.518Z,9.77
2024-04-08T23:48:05.179Z,10.48
2024-04-08T23:49:07.522Z,10.57
2024-04-08T23:50:09.794Z,9.90
2024-04-08T23:51:12.012Z,10.98
2024-04-08T23:52:14.222Z,11.13
2024-04-08T23:53:16.384Z,12.13
2024-04-08T23:54:18.713Z,10.73
2024-04-08T23:55:20.939Z,10.73
2024-04-08T23:56:23.120Z,9.77
2024-04-08T23:57:25.685Z,9.98
2024-04-08T23:58:27.897Z,10.15
2024-04-08T23:59:30.151Z,10.05
